X  Sluiten METAR luchtvaart weer gegevens      EHAM Amsterdam Airport Schiphol
Temperatuur
17°C Temperatuur
13°C Dauwpunt
77% Vochtigheid



Wind
3 KM/U
2 MPH
1 M/S
2 KTS



Kalm
N
Huidig weer

Wat bewolking Wat bewolking
Luchtdruk 1013.88 (hPa) - 29.94 (inHg)
Zicht 6 (mijl) - 9.7 (km)
Vliegveld
Vliegveld code EHAM

Locatie : Amsterdam Airport Schiphol
Afstand: 26 (km)

Metar:
EHAM 180755Z VRB02KT 9999 FEW046 17/13 Q1014 NOSIG

Tijd: 18-06-2024 09:55 CEST